createdAt,value
2024-05-09T00:00:48.023Z,9.58
2024-05-09T00:03:16.143Z,9.54
2024-05-09T00:05:45.043Z,9.57
2024-05-09T00:08:13.480Z,9.57
2024-05-09T00:10:41.802Z,9.78
2024-05-09T00:13:11.257Z,9.77
2024-05-09T00:15:39.891Z,9.57
2024-05-09T00:18:09.223Z,9.71
2024-05-09T00:20:40.488Z,9.64
2024-05-09T00:23:13.995Z,9.67
2024-05-09T00:25:45.755Z,9.58
2024-05-09T00:28:14.472Z,9.38
2024-05-09T00:30:42.748Z,9.39
2024-05-09T00:33:11.819Z,9.35
2024-05-09T00:35:41.743Z,9.30
2024-05-09T00:38:11.946Z,9.32
2024-05-09T00:40:43.098Z,9.17
2024-05-09T00:43:14.296Z,9.21
2024-05-09T00:45:44.437Z,9.12
2024-05-09T00:48:17.780Z,9.03
2024-05-09T00:50:48.830Z,8.91
2024-05-09T00:53:19.479Z,8.73
2024-05-09T00:55:47.844Z,8.64
2024-05-09T00:58:19.452Z,8.68
2024-05-09T01:00:48.935Z,8.73
2024-05-09T01:03:17.431Z,8.70
2024-05-09T01:05:46.116Z,8.72
2024-05-09T01:08:14.658Z,8.67
2024-05-09T01:10:45.089Z,8.79
2024-05-09T01:13:15.462Z,8.78
2024-05-09T01:15:44.898Z,8.56
2024-05-09T01:18:14.070Z,8.43
2024-05-09T01:20:44.763Z,8.40
2024-05-09T01:23:16.063Z,8.59
2024-05-09T01:25:46.748Z,8.61
2024-05-09T01:28:16.599Z,8.54
2024-05-09T01:30:44.871Z,8.40
2024-05-09T01:33:13.564Z,8.41
2024-05-09T01:35:43.140Z,8.29
2024-05-09T01:38:17.666Z,8.14
2024-05-09T01:40:47.473Z,7.97
2024-05-09T01:43:19.256Z,7.92
2024-05-09T01:45:47.497Z,7.82
2024-05-09T01:48:15.924Z,7.76
2024-05-09T01:50:44.192Z,7.68
2024-05-09T01:53:15.319Z,7.56
2024-05-09T01:55:44.559Z,7.45
2024-05-09T01:58:13.807Z,7.39
2024-05-09T02:00:43.464Z,7.19
2024-05-09T02:03:16.603Z,7.10
2024-05-09T02:05:48.302Z,7.03
2024-05-09T02:08:20.192Z,6.90
2024-05-09T02:10:50.682Z,6.88
2024-05-09T02:13:19.418Z,6.97
2024-05-09T02:15:47.732Z,6.95
2024-05-09T02:18:16.041Z,6.94
2024-05-09T02:20:44.595Z,6.83
2024-05-09T02:23:13.982Z,6.73
2024-05-09T02:25:43.041Z,6.66
2024-05-09T02:28:11.478Z,6.62
2024-05-09T02:30:41.751Z,6.64
2024-05-09T02:33:13.397Z,6.54
2024-05-09T02:35:44.218Z,6.52
2024-05-09T02:38:13.641Z,6.50
2024-05-09T02:40:42.099Z,6.42
2024-05-09T02:43:13.125Z,6.47
2024-05-09T02:45:42.211Z,6.46
2024-05-09T02:48:14.314Z,6.44
2024-05-09T02:50:44.839Z,6.47
2024-05-09T02:53:14.568Z,6.48
2024-05-09T02:55:43.853Z,6.41
2024-05-09T02:58:12.572Z,6.34
2024-05-09T03:03:30.603Z,6.37
2024-05-09T03:05:58.964Z,6.37
2024-05-09T03:08:28.212Z,6.50
2024-05-09T03:10:56.662Z,6.71
2024-05-09T03:13:25.225Z,6.97
2024-05-09T03:15:53.477Z,7.07
2024-05-09T03:18:21.748Z,7.04
2024-05-09T03:20:49.991Z,7.00
2024-05-09T03:23:18.489Z,7.06
2024-05-09T03:25:46.709Z,7.01
2024-05-09T03:28:14.909Z,7.03
2024-05-09T03:30:43.556Z,7.04
2024-05-09T03:33:13.970Z,7.19
2024-05-09T03:35:44.513Z,7.38
2024-05-09T03:38:12.685Z,7.45
2024-05-09T03:40:49.401Z,7.31
2024-05-09T03:43:19.932Z,7.35
2024-05-09T03:45:50.919Z,7.51
2024-05-09T03:48:19.338Z,7.82
2024-05-09T03:50:48.108Z,8.07
2024-05-09T03:53:17.071Z,8.39
2024-05-09T03:55:48.525Z,8.73
2024-05-09T03:58:16.961Z,8.99
2024-05-09T04:00:45.293Z,9.27
2024-05-09T04:03:13.862Z,9.65
2024-05-09T04:05:46.240Z,9.95
2024-05-09T04:08:16.080Z,10.27
2024-05-09T04:10:44.713Z,10.67
2024-05-09T04:13:13.222Z,10.88
2024-05-09T04:15:41.465Z,11.23
2024-05-09T04:18:09.875Z,11.63
2024-05-09T04:20:40.513Z,12.02
2024-05-09T04:23:14.870Z,12.35
2024-05-09T04:25:45.904Z,12.27
2024-05-09T04:28:14.857Z,11.99
2024-05-09T04:30:43.665Z,11.68
2024-05-09T04:33:13.997Z,11.73
2024-05-09T04:35:44.231Z,12.39
2024-05-09T04:38:14.646Z,13.14
2024-05-09T04:40:43.443Z,13.93
2024-05-09T04:43:20.748Z,14.32
2024-05-09T04:45:49.114Z,14.80
2024-05-09T04:48:17.363Z,15.19
2024-05-09T04:50:45.668Z,14.86
2024-05-09T04:53:17.538Z,15.51
2024-05-09T04:55:46.669Z,15.72
2024-05-09T04:58:14.903Z,15.67
2024-05-09T05:00:44.193Z,16.13
2024-05-09T05:03:15.367Z,16.60
2024-05-09T05:05:46.078Z,16.81
2024-05-09T05:08:19.452Z,16.96
2024-05-09T05:10:49.460Z,18.04
2024-05-09T05:13:21.918Z,17.98
2024-05-09T05:15:58.749Z,18.22
2024-05-09T05:18:28.621Z,18.66
2024-05-09T05:20:58.469Z,18.46
2024-05-09T05:23:26.825Z,18.40
2024-05-09T05:25:55.681Z,18.62
2024-05-09T05:28:24.349Z,18.92
2024-05-09T05:30:52.482Z,18.94
2024-05-09T05:33:23.028Z,19.40
2024-05-09T05:35:51.955Z,19.47
2024-05-09T05:38:23.767Z,20.13
2024-05-09T05:40:54.382Z,20.33
2024-05-09T05:43:22.517Z,21.15
2024-05-09T05:45:50.581Z,20.67
2024-05-09T05:48:19.063Z,21.54
2024-05-09T05:50:47.552Z,21.59
2024-05-09T05:53:15.960Z,21.56
2024-05-09T05:55:44.311Z,22.01
2024-05-09T05:58:14.678Z,22.10
2024-05-09T06:00:43.266Z,22.27
2024-05-09T06:03:13.984Z,22.86
2024-05-09T06:05:48.450Z,23.45
2024-05-09T06:08:16.822Z,22.59
2024-05-09T06:10:44.998Z,23.89
2024-05-09T06:13:14.656Z,23.90
2024-05-09T06:15:43.777Z,24.14
2024-05-09T06:18:13.040Z,25.03
2024-05-09T06:20:43.963Z,24.93
2024-05-09T06:23:13.389Z,25.71
2024-05-09T06:25:42.592Z,25.75
2024-05-09T06:28:11.561Z,26.01
2024-05-09T06:30:42.340Z,26.58
2024-05-09T06:33:14.459Z,25.22
2024-05-09T06:35:45.239Z,26.50
2024-05-09T06:38:13.586Z,27.13
2024-05-09T06:40:43.924Z,27.07
2024-05-09T06:43:18.546Z,26.75
2024-05-09T06:45:53.119Z,27.51
2024-05-09T06:48:22.568Z,28.04
2024-05-09T06:50:51.395Z,26.45
2024-05-09T06:53:26.527Z,26.67
2024-05-09T06:55:54.688Z,27.46
2024-05-09T06:58:22.846Z,27.37
2024-05-09T07:00:51.024Z,27.47
2024-05-09T07:03:19.748Z,26.71
2024-05-09T07:05:49.444Z,26.81
2024-05-09T07:08:19.076Z,26.58
2024-05-09T07:10:47.931Z,26.43
2024-05-09T07:13:16.350Z,26.76
2024-05-09T07:15:44.539Z,27.91
2024-05-09T07:18:18.327Z,27.56
2024-05-09T07:20:48.991Z,28.46
2024-05-09T07:23:18.699Z,28.40
2024-05-09T07:25:47.445Z,28.78
2024-05-09T07:28:18.084Z,28.66
2024-05-09T07:30:46.657Z,29.48
2024-05-09T07:33:23.570Z,30.45
2024-05-09T07:35:53.351Z,30.92
2024-05-09T07:38:21.713Z,30.15
2024-05-09T07:40:50.208Z,30.20
2024-05-09T07:43:18.492Z,30.44
2024-05-09T07:45:52.777Z,30.78
2024-05-09T07:52:39.353Z,30.33
2024-05-09T07:53:49.497Z,31.41
2024-05-09T07:56:22.679Z,32.38
2024-05-09T07:58:54.289Z,31.98
2024-05-09T08:01:25.850Z,32.41
2024-05-09T08:03:54.873Z,32.61
2024-05-09T08:06:24.651Z,31.45
2024-05-09T08:08:53.079Z,31.82
2024-05-09T08:11:21.248Z,32.59
2024-05-09T08:13:49.440Z,32.63
2024-05-09T08:16:17.688Z,32.44
2024-05-09T08:18:45.847Z,33.16
2024-05-09T08:21:13.920Z,33.24
2024-05-09T08:23:41.940Z,31.81
2024-05-09T08:26:10.331Z,31.47
2024-05-09T08:28:38.396Z,31.45
2024-05-09T08:31:07.299Z,32.24
2024-05-09T08:33:36.034Z,33.32
2024-05-09T08:36:04.543Z,31.94
2024-05-09T08:38:32.746Z,32.57
2024-05-09T08:41:04.189Z,31.83
2024-05-09T08:43:32.325Z,31.39
2024-05-09T08:46:01.247Z,32.58
2024-05-09T08:48:30.651Z,32.37
2024-05-09T08:50:59.607Z,32.04
2024-05-09T08:53:27.848Z,30.82
2024-05-09T08:55:58.240Z,31.25
2024-05-09T08:58:27.215Z,29.09
2024-05-09T09:00:55.955Z,29.44
2024-05-09T09:03:30.018Z,29.94
2024-05-09T09:06:15.502Z,30.95
2024-05-09T09:08:45.914Z,31.08
2024-05-09T09:11:14.156Z,32.58
2024-05-09T09:13:42.183Z,33.56
2024-05-09T09:16:10.272Z,33.23
2024-05-09T09:18:38.912Z,33.04
2024-05-09T09:21:11.526Z,31.31
2024-05-09T09:23:42.744Z,32.32
2024-05-09T09:26:16.115Z,32.00
2024-05-09T09:28:45.206Z,31.67
2024-05-09T09:31:13.351Z,33.30
2024-05-09T09:33:44.636Z,33.12
2024-05-09T09:36:15.710Z,31.90
2024-05-09T09:38:47.186Z,32.38
2024-05-09T09:41:20.353Z,32.52
2024-05-09T09:43:49.514Z,31.95
2024-05-09T09:46:18.651Z,32.13
2024-05-09T09:48:47.880Z,32.72
2024-05-09T09:51:16.430Z,33.41
2024-05-09T09:53:46.762Z,32.56
2024-05-09T09:56:18.028Z,30.12
2024-05-09T09:58:47.379Z,30.80
2024-05-09T10:01:15.679Z,28.90
2024-05-09T10:03:45.604Z,29.25
2024-05-09T10:06:15.055Z,30.09
2024-05-09T10:08:43.368Z,29.12
2024-05-09T10:11:11.596Z,30.22
2024-05-09T10:13:42.454Z,31.29
2024-05-09T10:16:12.551Z,31.24
2024-05-09T10:18:41.883Z,29.28
2024-05-09T10:21:17.662Z,29.64
2024-05-09T10:23:58.302Z,30.80
2024-05-09T10:26:38.047Z,31.22
2024-05-09T10:29:17.135Z,30.97
2024-05-09T10:31:46.964Z,30.29
2024-05-09T10:34:25.376Z,29.70
2024-05-09T10:36:55.267Z,28.12
2024-05-09T10:39:25.373Z,27.94
2024-05-09T10:41:53.549Z,27.68
2024-05-09T10:44:22.813Z,27.21
2024-05-09T10:46:50.991Z,25.62
2024-05-09T10:49:19.246Z,25.49
2024-05-09T10:51:48.520Z,27.03
2024-05-09T10:54:16.961Z,27.58
2024-05-09T10:56:45.072Z,26.37
2024-05-09T10:59:14.597Z,26.39
2024-05-09T11:01:42.975Z,26.61
2024-05-09T11:04:11.409Z,26.62
2024-05-09T11:06:40.252Z,26.49
2024-05-09T11:09:08.854Z,25.90
2024-05-09T11:11:37.297Z,25.05
2024-05-09T11:14:15.420Z,26.27
2024-05-09T11:16:43.747Z,26.83
2024-05-09T11:19:15.749Z,26.15
2024-05-09T11:21:44.984Z,23.91
2024-05-09T11:24:13.386Z,23.07
2024-05-09T11:26:41.748Z,24.26
2024-05-09T11:29:09.724Z,23.55
2024-05-09T11:31:50.263Z,23.29
2024-05-09T11:34:18.528Z,23.78
2024-05-09T11:36:46.900Z,23.53
2024-05-09T11:39:15.097Z,22.34
2024-05-09T11:41:43.428Z,21.96
2024-05-09T11:44:11.604Z,22.54
2024-05-09T11:46:39.730Z,22.95
2024-05-09T11:49:09.664Z,22.54
2024-05-09T11:51:37.831Z,22.42
2024-05-09T11:54:06.112Z,21.84
2024-05-09T11:56:34.357Z,21.42
2024-05-09T11:59:02.543Z,21.65
2024-05-09T12:01:30.844Z,22.11
2024-05-09T12:03:59.396Z,21.99
2024-05-09T12:06:27.682Z,21.66
2024-05-09T12:08:56.904Z,21.42
2024-05-09T12:11:24.994Z,21.63
2024-05-09T12:13:53.076Z,21.72
2024-05-09T12:16:21.399Z,21.73
2024-05-09T12:18:49.676Z,21.46
2024-05-09T12:21:17.992Z,20.97
2024-05-09T12:23:46.195Z,20.47
2024-05-09T12:26:15.923Z,20.82
2024-05-09T12:28:47.272Z,21.52
2024-05-09T12:31:15.534Z,21.69
2024-05-09T12:33:43.628Z,21.14
2024-05-09T12:36:12.426Z,21.17
2024-05-09T12:38:41.496Z,21.62
2024-05-09T12:41:10.613Z,21.44
2024-05-09T12:43:38.793Z,21.66
2024-05-09T12:46:06.978Z,21.75
2024-05-09T12:48:35.352Z,22.12
2024-05-09T12:51:03.582Z,22.15
2024-05-09T12:53:31.738Z,21.72
2024-05-09T12:56:02.381Z,22.11
2024-05-09T12:58:32.366Z,21.70
2024-05-09T13:01:00.562Z,21.91
2024-05-09T13:03:28.833Z,22.27
2024-05-09T13:05:57.277Z,21.74
2024-05-09T13:08:25.650Z,21.53
2024-05-09T13:10:53.917Z,21.73
2024-05-09T13:13:22.517Z,21.94
2024-05-09T13:15:50.774Z,22.15
2024-05-09T13:18:19.318Z,22.31
2024-05-09T13:20:47.684Z,22.54
2024-05-09T13:23:15.780Z,22.61
2024-05-09T13:25:44.109Z,22.48
2024-05-09T13:28:12.508Z,21.91
2024-05-09T13:30:42.161Z,21.40
2024-05-09T13:33:12.875Z,20.90
2024-05-09T13:35:49.198Z,20.72
2024-05-09T13:38:21.138Z,20.73
2024-05-09T13:40:50.848Z,20.66
2024-05-09T13:43:21.241Z,20.72
2024-05-09T13:45:49.586Z,20.55
2024-05-09T13:48:18.298Z,21.07
2024-05-09T13:50:47.291Z,20.96
2024-05-09T13:53:15.587Z,20.97
2024-05-09T13:55:43.969Z,20.76
2024-05-09T13:58:12.363Z,20.90
2024-05-09T14:00:46.435Z,21.12
2024-05-09T14:03:20.203Z,21.19
2024-05-09T14:05:51.289Z,21.46
2024-05-09T14:08:22.625Z,21.45
2024-05-09T14:10:51.430Z,21.04
2024-05-09T14:13:20.750Z,20.49
2024-05-09T14:15:49.603Z,20.65
2024-05-09T14:18:18.765Z,20.85
2024-05-09T14:20:47.035Z,21.20
2024-05-09T14:23:18.143Z,21.40
2024-05-09T14:25:50.090Z,21.15
2024-05-09T14:28:23.064Z,21.28
2024-05-09T14:30:52.026Z,21.39
2024-05-09T14:33:25.643Z,21.55
2024-05-09T14:35:54.788Z,21.11
2024-05-09T14:38:24.351Z,20.86
2024-05-09T14:40:53.037Z,20.46
2024-05-09T14:43:21.622Z,20.39
2024-05-09T14:45:50.003Z,20.40
2024-05-09T14:48:20.206Z,20.27
2024-05-09T14:50:48.889Z,20.37
2024-05-09T14:53:17.102Z,20.55
2024-05-09T14:55:45.569Z,20.72
2024-05-09T14:58:14.002Z,20.78
2024-05-09T15:00:47.783Z,20.88
2024-05-09T15:03:22.413Z,20.71
2024-05-09T15:05:51.974Z,20.89
2024-05-09T15:08:21.025Z,20.77
2024-05-09T15:10:50.450Z,20.89
2024-05-09T15:13:20.659Z,20.93
2024-05-09T15:15:49.553Z,21.02
2024-05-09T15:18:18.743Z,20.91
2024-05-09T15:20:47.331Z,20.80
2024-05-09T15:23:15.779Z,21.11
2024-05-09T15:25:44.982Z,20.83
2024-05-09T15:28:13.202Z,20.79
2024-05-09T15:30:45.452Z,20.68
2024-05-09T15:33:15.855Z,20.59
2024-05-09T15:35:46.514Z,20.52
2024-05-09T15:38:18.572Z,20.57
2024-05-09T15:40:47.377Z,20.16
2024-05-09T15:43:15.632Z,19.90
2024-05-09T15:45:44.028Z,19.93
2024-05-09T15:48:12.486Z,19.93
2024-05-09T15:50:42.415Z,19.79
2024-05-09T15:53:13.473Z,19.92
2024-05-09T15:55:43.060Z,20.01
2024-05-09T15:58:11.682Z,19.92
2024-05-09T16:00:42.608Z,19.71
2024-05-09T16:03:14.223Z,19.57
2024-05-09T16:05:47.244Z,19.38
2024-05-09T16:08:16.448Z,19.22
2024-05-09T16:10:46.286Z,19.03
2024-05-09T16:13:16.284Z,19.09
2024-05-09T16:15:45.169Z,18.87
2024-05-09T16:18:13.948Z,18.50
2024-05-09T16:20:43.557Z,18.63
2024-05-09T16:23:13.096Z,18.59
2024-05-09T16:25:46.520Z,18.58
2024-05-09T16:28:15.027Z,18.55
2024-05-09T16:30:43.438Z,18.56
2024-05-09T16:33:12.341Z,18.47
2024-05-09T16:35:40.670Z,18.39
2024-05-09T16:38:08.898Z,18.58
2024-05-09T16:40:40.602Z,18.42
2024-05-09T16:43:13.734Z,18.42
2024-05-09T16:45:44.844Z,18.30
2024-05-09T16:48:14.731Z,18.45
2024-05-09T16:50:43.862Z,18.39
2024-05-09T16:53:13.815Z,18.32
2024-05-09T16:55:42.097Z,18.34
2024-05-09T16:58:12.669Z,18.44
2024-05-09T17:00:43.448Z,18.13
2024-05-09T17:03:15.530Z,17.95
2024-05-09T17:05:50.592Z,17.93
2024-05-09T17:08:20.069Z,17.83
2024-05-09T17:10:49.675Z,17.69
2024-05-09T17:13:18.894Z,17.58
2024-05-09T17:15:47.899Z,17.38
2024-05-09T17:18:16.732Z,17.21
2024-05-09T17:20:45.039Z,17.05
2024-05-09T17:23:14.241Z,16.93
2024-05-09T17:25:43.679Z,16.65
2024-05-09T17:28:12.546Z,16.60
2024-05-09T17:30:42.386Z,16.60
2024-05-09T17:33:13.113Z,16.56
2024-05-09T17:35:42.212Z,16.28
2024-05-09T17:38:10.739Z,16.33
2024-05-09T17:40:39.680Z,16.18
2024-05-09T17:43:10.545Z,16.03
2024-05-09T17:45:41.275Z,16.02
2024-05-09T17:48:12.083Z,15.98
2024-05-09T17:50:41.916Z,15.87
2024-05-09T17:53:11.338Z,15.78
2024-05-09T17:55:40.826Z,15.68
2024-05-09T17:58:09.456Z,15.59
2024-05-09T18:00:40.888Z,15.49
2024-05-09T18:03:12.463Z,15.35
2024-05-09T18:05:44.393Z,15.31
2024-05-09T18:08:13.684Z,15.20
2024-05-09T18:10:42.578Z,15.11
2024-05-09T18:13:14.679Z,14.94
2024-05-09T18:15:43.152Z,14.88
2024-05-09T18:18:12.265Z,14.74
2024-05-09T18:20:44.633Z,14.61
2024-05-09T18:23:17.174Z,14.54
2024-05-09T18:25:47.866Z,14.47
2024-05-09T18:28:17.557Z,14.43
2024-05-09T18:30:46.302Z,14.32
2024-05-09T18:33:14.844Z,14.16
2024-05-09T18:35:46.789Z,14.12
2024-05-09T18:38:15.081Z,14.01
2024-05-09T18:40:46.101Z,13.94
2024-05-09T18:43:16.898Z,13.90
2024-05-09T18:45:46.137Z,13.65
2024-05-09T18:48:14.685Z,13.46
2024-05-09T18:50:42.959Z,13.35
2024-05-09T18:53:13.241Z,13.33
2024-05-09T18:55:43.542Z,13.25
2024-05-09T18:58:12.267Z,13.23
2024-05-09T19:00:42.958Z,13.07
2024-05-09T19:03:14.794Z,12.96
2024-05-09T19:05:46.120Z,12.88
2024-05-09T19:08:15.834Z,12.77
2024-05-09T19:10:46.338Z,12.76
2024-05-09T19:13:16.921Z,12.56
2024-05-09T19:15:45.981Z,12.43
2024-05-09T19:18:15.088Z,12.65
2024-05-09T19:20:44.632Z,12.60
2024-05-09T19:23:13.088Z,12.66
2024-05-09T19:25:41.478Z,12.63
2024-05-09T19:28:10.099Z,12.65
2024-05-09T19:30:41.815Z,12.60
2024-05-09T19:33:14.534Z,12.60
2024-05-09T19:35:44.259Z,12.45
2024-05-09T19:38:13.004Z,12.31
2024-05-09T19:40:41.669Z,12.40
2024-05-09T19:43:11.311Z,12.45
2024-05-09T19:45:39.940Z,12.44
2024-05-09T19:48:09.173Z,12.39
2024-05-09T19:50:42.654Z,12.25
2024-05-09T19:53:14.215Z,12.19
2024-05-09T19:55:43.655Z,12.15
2024-05-09T19:58:12.798Z,12.07
2024-05-09T20:00:43.360Z,12.08
2024-05-09T20:03:15.510Z,12.10
2024-05-09T20:05:47.124Z,11.90
2024-05-09T20:08:15.920Z,11.81
2024-05-09T20:10:44.649Z,11.69
2024-05-09T20:13:14.433Z,11.44
2024-05-09T20:15:42.593Z,11.30
2024-05-09T20:18:11.230Z,11.30
2024-05-09T20:20:42.647Z,11.24
2024-05-09T20:23:13.751Z,11.14
2024-05-09T20:25:43.198Z,11.09
2024-05-09T20:28:12.622Z,10.86
2024-05-09T20:30:41.132Z,10.86
2024-05-09T20:33:10.199Z,10.73
2024-05-09T20:35:38.822Z,10.84
2024-05-09T20:38:07.291Z,10.83
2024-05-09T20:40:38.340Z,10.49
2024-05-09T20:43:10.336Z,10.65
2024-05-09T20:45:39.982Z,10.77
2024-05-09T20:48:10.016Z,10.54
2024-05-09T20:50:41.351Z,10.77
2024-05-09T20:53:15.182Z,10.88
2024-05-09T20:55:45.106Z,10.91
2024-05-09T20:58:14.110Z,10.84
2024-05-09T21:00:45.027Z,11.02
2024-05-09T21:03:16.836Z,11.03
2024-05-09T21:05:47.340Z,11.01
2024-05-09T21:08:16.207Z,11.00
2024-05-09T21:10:44.583Z,10.91
2024-05-09T21:13:13.119Z,10.90
2024-05-09T21:15:41.574Z,10.85
2024-05-09T21:18:10.117Z,10.72
2024-05-09T21:20:38.246Z,10.64
2024-05-09T21:23:06.461Z,10.65
2024-05-09T21:25:34.859Z,10.60
2024-05-09T21:28:04.327Z,10.54
2024-05-09T21:30:41.061Z,10.56
2024-05-09T21:33:13.752Z,10.43
2024-05-09T21:35:44.395Z,10.37
2024-05-09T21:38:16.423Z,10.46
2024-05-09T21:40:45.346Z,10.35
2024-05-09T21:43:14.599Z,10.30
2024-05-09T21:45:43.358Z,10.18
2024-05-09T21:48:13.814Z,10.08
2024-05-09T21:50:42.602Z,10.10
2024-05-09T21:53:12.740Z,9.93
2024-05-09T21:55:42.025Z,9.88
2024-05-09T21:58:10.632Z,9.72
2024-05-09T22:00:40.525Z,9.71
2024-05-09T22:03:10.585Z,9.63
2024-05-09T22:05:43.859Z,9.68
2024-05-09T22:08:12.107Z,9.73
2024-05-09T22:10:40.162Z,9.58
2024-05-09T22:13:08.916Z,9.43
2024-05-09T22:15:40.405Z,9.48
2024-05-09T22:18:10.541Z,9.41
2024-05-09T22:20:45.624Z,9.30
2024-05-09T22:23:18.359Z,9.25
2024-05-09T22:25:46.387Z,9.24
2024-05-09T22:28:16.324Z,9.31
2024-05-09T22:30:46.664Z,9.13
2024-05-09T22:33:16.008Z,9.20
2024-05-09T22:35:44.445Z,9.24
2024-05-09T22:38:12.489Z,9.30
2024-05-09T22:40:47.384Z,9.33
2024-05-09T22:43:21.235Z,9.37
2024-05-09T22:45:51.461Z,9.24
2024-05-09T22:48:20.143Z,9.25
2024-05-09T22:50:48.715Z,9.18
2024-05-09T22:53:16.745Z,9.16
2024-05-09T22:55:44.853Z,9.10
2024-05-09T22:58:13.128Z,9.14
2024-05-09T23:00:41.499Z,9.14
2024-05-09T23:03:09.844Z,9.06
2024-05-09T23:05:38.701Z,9.07
2024-05-09T23:08:07.411Z,9.01
2024-05-09T23:10:37.724Z,8.96
2024-05-09T23:13:09.670Z,8.98
2024-05-09T23:15:41.435Z,8.87
2024-05-09T23:18:09.851Z,8.82
2024-05-09T23:20:39.910Z,8.80
2024-05-09T23:23:10.683Z,8.87
2024-05-09T23:25:43.243Z,8.93
2024-05-09T23:28:14.162Z,8.92
2024-05-09T23:30:42.735Z,8.85
2024-05-09T23:33:13.727Z,8.85
2024-05-09T23:35:44.546Z,8.87
2024-05-09T23:38:13.627Z,8.85
2024-05-09T23:40:42.912Z,8.70
2024-05-09T23:43:12.911Z,8.67
2024-05-09T23:45:42.494Z,8.68
2024-05-09T23:48:11.437Z,8.63
2024-05-09T23:50:40.616Z,8.53
2024-05-09T23:53:10.535Z,8.45
2024-05-09T23:55:40.200Z,8.40
2024-05-09T23:58:09.250Z,8.35
